sensor_id;sensor_type;location;lat;lon;timestamp;P1;durP1;ratioP1;P2;durP2;ratioP2
48635;SDS011;34429;52.332;5.614;2023-03-03T00:00:36;38.67;;;18.85;;
48635;SDS011;34429;52.332;5.614;2023-03-03T00:03:05;38.72;;;19.60;;
48635;SDS011;34429;52.332;5.614;2023-03-03T00:05:37;34.70;;;17.75;;
48635;SDS011;34429;52.332;5.614;2023-03-03T00:08:06;39.90;;;19.42;;
48635;SDS011;34429;52.332;5.614;2023-03-03T00:13:10;47.05;;;21.23;;
48635;SDS011;34429;52.332;5.614;2023-03-03T00:15:42;40.67;;;19.08;;
48635;SDS011;34429;52.332;5.614;2023-03-03T00:18:20;43.65;;;19.02;;
48635;SDS011;34429;52.332;5.614;2023-03-03T00:20:53;45.80;;;20.30;;
48635;SDS011;34429;52.332;5.614;2023-03-03T00:23:29;48.08;;;21.67;;
48635;SDS011;34429;52.332;5.614;2023-03-03T00:26:03;49.95;;;21.25;;
48635;SDS011;34429;52.332;5.614;2023-03-03T00:28:46;47.08;;;18.85;;
48635;SDS011;34429;52.332;5.614;2023-03-03T00:31:17;48.05;;;19.15;;
48635;SDS011;34429;52.332;5.614;2023-03-03T00:33:48;45.85;;;20.77;;
48635;SDS011;34429;52.332;5.614;2023-03-03T00:39:18;46.53;;;20.80;;
48635;SDS011;34429;52.332;5.614;2023-03-03T00:41:51;45.75;;;21.00;;
48635;SDS011;34429;52.332;5.614;2023-03-03T00:44:35;49.47;;;20.88;;
48635;SDS011;34429;52.332;5.614;2023-03-03T00:47:12;54.17;;;22.20;;
48635;SDS011;34429;52.332;5.614;2023-03-03T00:49:52;50.67;;;21.40;;
48635;SDS011;34429;52.332;5.614;2023-03-03T00:52:21;47.20;;;19.70;;
48635;SDS011;34429;52.332;5.614;2023-03-03T00:54:54;43.90;;;18.75;;
48635;SDS011;34429;52.332;5.614;2023-03-03T00:57:23;49.85;;;19.45;;
48635;SDS011;34429;52.332;5.614;2023-03-03T00:59:54;47.27;;;19.17;;
48635;SDS011;34429;52.332;5.614;2023-03-03T01:02:22;51.00;;;18.90;;
48635;SDS011;34429;52.332;5.614;2023-03-03T01:04:51;48.97;;;19.98;;
48635;SDS011;34429;52.332;5.614;2023-03-03T01:07:21;46.78;;;19.83;;
48635;SDS011;34429;52.332;5.614;2023-03-03T01:09:50;53.75;;;20.88;;
48635;SDS011;34429;52.332;5.614;2023-03-03T01:12:18;48.85;;;20.00;;
48635;SDS011;34429;52.332;5.614;2023-03-03T01:14:47;46.92;;;21.02;;
48635;SDS011;34429;52.332;5.614;2023-03-03T01:17:19;49.15;;;19.63;;
48635;SDS011;34429;52.332;5.614;2023-03-03T01:19:48;51.72;;;19.45;;
48635;SDS011;34429;52.332;5.614;2023-03-03T01:22:16;54.42;;;20.60;;
48635;SDS011;34429;52.332;5.614;2023-03-03T01:24:44;54.63;;;20.90;;
48635;SDS011;34429;52.332;5.614;2023-03-03T01:27:13;47.55;;;18.17;;
48635;SDS011;34429;52.332;5.614;2023-03-03T01:29:41;49.30;;;20.88;;
48635;SDS011;34429;52.332;5.614;2023-03-03T01:32:09;53.63;;;20.88;;
48635;SDS011;34429;52.332;5.614;2023-03-03T01:34:40;55.78;;;20.25;;
48635;SDS011;34429;52.332;5.614;2023-03-03T01:37:08;48.60;;;18.92;;
48635;SDS011;34429;52.332;5.614;2023-03-03T01:39:37;49.58;;;19.52;;
48635;SDS011;34429;52.332;5.614;2023-03-03T01:42:05;49.67;;;19.70;;
48635;SDS011;34429;52.332;5.614;2023-03-03T01:44:34;52.58;;;19.23;;
48635;SDS011;34429;52.332;5.614;2023-03-03T01:47:03;52.05;;;20.52;;
48635;SDS011;34429;52.332;5.614;2023-03-03T01:49:35;51.30;;;20.13;;
48635;SDS011;34429;52.332;5.614;2023-03-03T01:52:12;55.22;;;19.75;;
48635;SDS011;34429;52.332;5.614;2023-03-03T01:54:48;55.25;;;19.35;;
48635;SDS011;34429;52.332;5.614;2023-03-03T01:57:21;54.55;;;20.40;;
48635;SDS011;34429;52.332;5.614;2023-03-03T01:59:53;45.90;;;18.83;;
48635;SDS011;34429;52.332;5.614;2023-03-03T02:02:24;46.97;;;20.80;;
48635;SDS011;34429;52.332;5.614;2023-03-03T02:04:57;54.90;;;20.92;;
48635;SDS011;34429;52.332;5.614;2023-03-03T02:07:26;50.38;;;19.30;;
48635;SDS011;34429;52.332;5.614;2023-03-03T02:09:57;49.30;;;19.42;;
48635;SDS011;34429;52.332;5.614;2023-03-03T02:12:30;46.63;;;18.20;;
48635;SDS011;34429;52.332;5.614;2023-03-03T02:15:01;49.75;;;18.40;;
48635;SDS011;34429;52.332;5.614;2023-03-03T02:17:35;55.78;;;18.98;;
48635;SDS011;34429;52.332;5.614;2023-03-03T02:20:08;50.75;;;19.77;;
48635;SDS011;34429;52.332;5.614;2023-03-03T02:22:44;49.13;;;18.13;;
48635;SDS011;34429;52.332;5.614;2023-03-03T02:25:21;49.42;;;19.83;;
48635;SDS011;34429;52.332;5.614;2023-03-03T02:27:58;42.42;;;18.75;;
48635;SDS011;34429;52.332;5.614;2023-03-03T02:30:27;47.33;;;18.67;;
48635;SDS011;34429;52.332;5.614;2023-03-03T02:32:55;48.33;;;19.23;;
48635;SDS011;34429;52.332;5.614;2023-03-03T02:35:28;46.63;;;18.27;;
48635;SDS011;34429;52.332;5.614;2023-03-03T02:38:02;43.67;;;18.70;;
48635;SDS011;34429;52.332;5.614;2023-03-03T02:40:36;44.60;;;17.75;;
48635;SDS011;34429;52.332;5.614;2023-03-03T02:43:16;48.88;;;18.10;;
48635;SDS011;34429;52.332;5.614;2023-03-03T02:45:51;48.55;;;18.48;;
48635;SDS011;34429;52.332;5.614;2023-03-03T02:48:19;47.85;;;17.58;;
48635;SDS011;34429;52.332;5.614;2023-03-03T02:50:48;49.58;;;18.08;;
48635;SDS011;34429;52.332;5.614;2023-03-03T02:53:16;45.65;;;18.05;;
48635;SDS011;34429;52.332;5.614;2023-03-03T02:55:44;46.83;;;16.90;;
48635;SDS011;34429;52.332;5.614;2023-03-03T02:58:13;44.53;;;16.63;;
48635;SDS011;34429;52.332;5.614;2023-03-03T03:00:44;42.17;;;16.80;;
48635;SDS011;34429;52.332;5.614;2023-03-03T03:03:13;41.17;;;15.27;;
48635;SDS011;34429;52.332;5.614;2023-03-03T03:05:41;37.87;;;14.37;;
48635;SDS011;34429;52.332;5.614;2023-03-03T03:08:09;33.72;;;12.75;;
48635;SDS011;34429;52.332;5.614;2023-03-03T03:10:38;35.25;;;14.00;;
48635;SDS011;34429;52.332;5.614;2023-03-03T03:13:06;33.20;;;13.60;;
48635;SDS011;34429;52.332;5.614;2023-03-03T03:15:37;38.50;;;15.07;;
48635;SDS011;34429;52.332;5.614;2023-03-03T03:18:05;35.10;;;14.27;;
48635;SDS011;34429;52.332;5.614;2023-03-03T03:20:34;31.42;;;13.25;;
48635;SDS011;34429;52.332;5.614;2023-03-03T03:23:04;36.58;;;14.38;;
48635;SDS011;34429;52.332;5.614;2023-03-03T03:25:32;30.58;;;14.13;;
48635;SDS011;34429;52.332;5.614;2023-03-03T03:28:06;31.50;;;13.15;;
48635;SDS011;34429;52.332;5.614;2023-03-03T03:30:37;32.85;;;12.85;;
48635;SDS011;34429;52.332;5.614;2023-03-03T03:33:08;30.70;;;11.18;;
48635;SDS011;34429;52.332;5.614;2023-03-03T03:35:37;31.58;;;12.35;;
48635;SDS011;34429;52.332;5.614;2023-03-03T03:38:09;32.22;;;12.68;;
48635;SDS011;34429;52.332;5.614;2023-03-03T03:40:38;34.67;;;14.17;;
48635;SDS011;34429;52.332;5.614;2023-03-03T03:43:06;31.67;;;12.55;;
48635;SDS011;34429;52.332;5.614;2023-03-03T03:45:37;32.83;;;13.03;;
48635;SDS011;34429;52.332;5.614;2023-03-03T03:48:06;34.38;;;13.25;;
48635;SDS011;34429;52.332;5.614;2023-03-03T03:50:34;33.03;;;12.75;;
48635;SDS011;34429;52.332;5.614;2023-03-03T03:53:02;31.38;;;13.63;;
48635;SDS011;34429;52.332;5.614;2023-03-03T03:55:31;31.75;;;13.50;;
48635;SDS011;34429;52.332;5.614;2023-03-03T03:58:00;35.30;;;14.00;;
48635;SDS011;34429;52.332;5.614;2023-03-03T04:00:28;33.97;;;11.80;;
48635;SDS011;34429;52.332;5.614;2023-03-03T04:02:59;40.50;;;13.70;;
48635;SDS011;34429;52.332;5.614;2023-03-03T04:05:28;38.90;;;12.80;;
48635;SDS011;34429;52.332;5.614;2023-03-03T04:07:56;33.00;;;13.90;;
48635;SDS011;34429;52.332;5.614;2023-03-03T04:10:24;35.35;;;13.27;;
48635;SDS011;34429;52.332;5.614;2023-03-03T04:12:52;37.33;;;12.82;;
48635;SDS011;34429;52.332;5.614;2023-03-03T04:15:21;39.63;;;14.73;;
48635;SDS011;34429;52.332;5.614;2023-03-03T04:17:49;40.15;;;13.90;;
48635;SDS011;34429;52.332;5.614;2023-03-03T04:20:20;34.90;;;12.57;;
48635;SDS011;34429;52.332;5.614;2023-03-03T04:22:49;34.47;;;13.88;;
48635;SDS011;34429;52.332;5.614;2023-03-03T04:25:17;42.80;;;15.77;;
48635;SDS011;34429;52.332;5.614;2023-03-03T04:27:45;36.10;;;14.18;;
48635;SDS011;34429;52.332;5.614;2023-03-03T04:30:14;41.15;;;15.30;;
48635;SDS011;34429;52.332;5.614;2023-03-03T04:32:43;35.20;;;14.15;;
48635;SDS011;34429;52.332;5.614;2023-03-03T04:35:11;41.95;;;13.70;;
48635;SDS011;34429;52.332;5.614;2023-03-03T04:37:42;37.05;;;13.85;;
48635;SDS011;34429;52.332;5.614;2023-03-03T04:40:11;37.67;;;12.35;;
48635;SDS011;34429;52.332;5.614;2023-03-03T04:42:40;40.97;;;15.10;;
48635;SDS011;34429;52.332;5.614;2023-03-03T04:45:09;38.65;;;13.98;;
48635;SDS011;34429;52.332;5.614;2023-03-03T04:50:06;34.72;;;12.95;;
48635;SDS011;34429;52.332;5.614;2023-03-03T04:52:37;35.85;;;12.23;;
48635;SDS011;34429;52.332;5.614;2023-03-03T04:55:08;38.40;;;11.20;;
48635;SDS011;34429;52.332;5.614;2023-03-03T04:57:38;38.00;;;11.90;;
48635;SDS011;34429;52.332;5.614;2023-03-03T05:00:07;37.35;;;11.55;;
48635;SDS011;34429;52.332;5.614;2023-03-03T05:02:37;42.95;;;12.82;;
48635;SDS011;34429;52.332;5.614;2023-03-03T05:05:06;42.22;;;12.85;;
48635;SDS011;34429;52.332;5.614;2023-03-03T05:07:35;38.85;;;12.18;;
48635;SDS011;34429;52.332;5.614;2023-03-03T05:10:04;30.08;;;11.15;;
48635;SDS011;34429;52.332;5.614;2023-03-03T05:12:35;33.60;;;11.63;;
48635;SDS011;34429;52.332;5.614;2023-03-03T05:15:04;31.95;;;12.20;;
48635;SDS011;34429;52.332;5.614;2023-03-03T05:17:34;36.05;;;12.93;;
48635;SDS011;34429;52.332;5.614;2023-03-03T05:20:02;34.25;;;12.13;;
48635;SDS011;34429;52.332;5.614;2023-03-03T05:22:32;39.35;;;12.63;;
48635;SDS011;34429;52.332;5.614;2023-03-03T05:25:01;38.17;;;12.87;;
48635;SDS011;34429;52.332;5.614;2023-03-03T05:27:29;40.33;;;13.98;;
48635;SDS011;34429;52.332;5.614;2023-03-03T05:30:00;35.53;;;13.45;;
48635;SDS011;34429;52.332;5.614;2023-03-03T05:32:28;36.72;;;13.55;;
48635;SDS011;34429;52.332;5.614;2023-03-03T05:34:56;36.42;;;11.73;;
48635;SDS011;34429;52.332;5.614;2023-03-03T05:37:25;48.17;;;13.50;;
48635;SDS011;34429;52.332;5.614;2023-03-03T05:39:53;34.88;;;11.15;;
48635;SDS011;34429;52.332;5.614;2023-03-03T05:42:21;42.70;;;13.20;;
48635;SDS011;34429;52.332;5.614;2023-03-03T05:44:50;40.13;;;11.57;;
48635;SDS011;34429;52.332;5.614;2023-03-03T05:47:21;36.50;;;12.67;;
48635;SDS011;34429;52.332;5.614;2023-03-03T05:49:49;42.45;;;11.75;;
48635;SDS011;34429;52.332;5.614;2023-03-03T05:52:17;35.13;;;12.43;;
48635;SDS011;34429;52.332;5.614;2023-03-03T05:54:46;40.20;;;11.80;;
48635;SDS011;34429;52.332;5.614;2023-03-03T05:57:14;38.83;;;12.10;;
48635;SDS011;34429;52.332;5.614;2023-03-03T05:59:43;44.85;;;12.90;;
48635;SDS011;34429;52.332;5.614;2023-03-03T06:02:11;30.80;;;11.75;;
48635;SDS011;34429;52.332;5.614;2023-03-03T06:04:42;35.00;;;13.20;;
48635;SDS011;34429;52.332;5.614;2023-03-03T06:07:10;44.58;;;12.75;;
48635;SDS011;34429;52.332;5.614;2023-03-03T06:09:39;27.80;;;11.43;;
48635;SDS011;34429;52.332;5.614;2023-03-03T06:12:07;31.33;;;10.83;;
48635;SDS011;34429;52.332;5.614;2023-03-03T06:14:36;34.55;;;10.88;;
48635;SDS011;34429;52.332;5.614;2023-03-03T06:17:04;31.40;;;11.13;;
48635;SDS011;34429;52.332;5.614;2023-03-03T06:19:32;34.03;;;10.70;;
48635;SDS011;34429;52.332;5.614;2023-03-03T06:22:03;42.20;;;12.27;;
48635;SDS011;34429;52.332;5.614;2023-03-03T06:24:32;36.30;;;13.18;;
48635;SDS011;34429;52.332;5.614;2023-03-03T06:27:00;37.40;;;11.48;;
48635;SDS011;34429;52.332;5.614;2023-03-03T06:29:28;38.57;;;13.23;;
48635;SDS011;34429;52.332;5.614;2023-03-03T06:31:57;34.97;;;12.35;;
48635;SDS011;34429;52.332;5.614;2023-03-03T06:34:25;34.75;;;12.93;;
48635;SDS011;34429;52.332;5.614;2023-03-03T06:36:54;32.13;;;12.00;;
48635;SDS011;34429;52.332;5.614;2023-03-03T06:39:25;30.67;;;12.25;;
48635;SDS011;34429;52.332;5.614;2023-03-03T06:41:53;38.97;;;11.80;;
48635;SDS011;34429;52.332;5.614;2023-03-03T06:44:21;31.02;;;10.95;;
48635;SDS011;34429;52.332;5.614;2023-03-03T06:46:50;32.78;;;12.48;;
48635;SDS011;34429;52.332;5.614;2023-03-03T06:49:21;39.33;;;12.43;;
48635;SDS011;34429;52.332;5.614;2023-03-03T06:51:49;35.23;;;11.57;;
48635;SDS011;34429;52.332;5.614;2023-03-03T06:54:18;32.38;;;11.63;;
48635;SDS011;34429;52.332;5.614;2023-03-03T06:56:50;27.00;;;11.23;;
48635;SDS011;34429;52.332;5.614;2023-03-03T06:59:25;29.50;;;11.32;;
48635;SDS011;34429;52.332;5.614;2023-03-03T07:01:54;28.95;;;10.70;;
48635;SDS011;34429;52.332;5.614;2023-03-03T07:04:24;30.55;;;10.65;;
48635;SDS011;34429;52.332;5.614;2023-03-03T07:06:55;31.40;;;10.57;;
48635;SDS011;34429;52.332;5.614;2023-03-03T07:09:27;30.77;;;11.40;;
48635;SDS011;34429;52.332;5.614;2023-03-03T07:12:05;29.98;;;10.80;;
48635;SDS011;34429;52.332;5.614;2023-03-03T07:14:39;33.92;;;11.75;;
48635;SDS011;34429;52.332;5.614;2023-03-03T07:17:09;35.50;;;11.70;;
48635;SDS011;34429;52.332;5.614;2023-03-03T07:19:44;29.55;;;10.60;;
48635;SDS011;34429;52.332;5.614;2023-03-03T07:22:14;30.08;;;9.98;;
48635;SDS011;34429;52.332;5.614;2023-03-03T07:24:43;31.60;;;11.38;;
48635;SDS011;34429;52.332;5.614;2023-03-03T07:27:18;32.38;;;11.00;;
48635;SDS011;34429;52.332;5.614;2023-03-03T07:29:53;31.33;;;11.73;;
48635;SDS011;34429;52.332;5.614;2023-03-03T07:32:26;32.33;;;11.70;;
48635;SDS011;34429;52.332;5.614;2023-03-03T07:35:07;23.30;;;10.60;;
48635;SDS011;34429;52.332;5.614;2023-03-03T07:37:52;34.38;;;10.85;;
48635;SDS011;34429;52.332;5.614;2023-03-03T07:40:26;40.10;;;11.90;;
48635;SDS011;34429;52.332;5.614;2023-03-03T07:43:15;28.42;;;10.98;;
48635;SDS011;34429;52.332;5.614;2023-03-03T07:45:52;28.13;;;10.95;;
48635;SDS011;34429;52.332;5.614;2023-03-03T07:48:28;29.23;;;9.20;;
48635;SDS011;34429;52.332;5.614;2023-03-03T07:50:59;33.67;;;11.27;;
48635;SDS011;34429;52.332;5.614;2023-03-03T07:53:33;30.13;;;9.60;;
48635;SDS011;34429;52.332;5.614;2023-03-03T07:56:03;29.65;;;11.85;;
48635;SDS011;34429;52.332;5.614;2023-03-03T07:58:44;26.23;;;9.55;;
48635;SDS011;34429;52.332;5.614;2023-03-03T08:01:24;24.30;;;10.30;;
48635;SDS011;34429;52.332;5.614;2023-03-03T08:03:59;29.38;;;9.50;;
48635;SDS011;34429;52.332;5.614;2023-03-03T08:06:44;24.15;;;10.45;;
48635;SDS011;34429;52.332;5.614;2023-03-03T08:12:11;25.00;;;9.70;;
48635;SDS011;34429;52.332;5.614;2023-03-03T08:14:53;22.63;;;9.07;;
48635;SDS011;34429;52.332;5.614;2023-03-03T08:17:24;23.48;;;9.10;;
48635;SDS011;34429;52.332;5.614;2023-03-03T08:20:02;24.90;;;10.20;;
48635;SDS011;34429;52.332;5.614;2023-03-03T08:22:58;26.02;;;9.18;;
48635;SDS011;34429;52.332;5.614;2023-03-03T08:25:26;26.98;;;10.38;;
48635;SDS011;34429;52.332;5.614;2023-03-03T08:27:54;27.25;;;10.90;;
48635;SDS011;34429;52.332;5.614;2023-03-03T08:30:25;29.45;;;11.13;;
48635;SDS011;34429;52.332;5.614;2023-03-03T08:32:55;24.90;;;10.05;;
48635;SDS011;34429;52.332;5.614;2023-03-03T08:35:23;27.30;;;10.70;;
48635;SDS011;34429;52.332;5.614;2023-03-03T08:37:51;29.98;;;10.82;;
48635;SDS011;34429;52.332;5.614;2023-03-03T08:40:20;29.70;;;10.65;;
48635;SDS011;34429;52.332;5.614;2023-03-03T08:42:49;28.20;;;10.70;;
48635;SDS011;34429;52.332;5.614;2023-03-03T08:45:18;24.10;;;9.07;;
48635;SDS011;34429;52.332;5.614;2023-03-03T08:47:49;19.95;;;8.85;;
48635;SDS011;34429;52.332;5.614;2023-03-03T08:50:18;20.77;;;8.82;;
48635;SDS011;34429;52.332;5.614;2023-03-03T08:52:47;16.63;;;8.23;;
48635;SDS011;34429;52.332;5.614;2023-03-03T08:55:15;15.70;;;7.40;;
48635;SDS011;34429;52.332;5.614;2023-03-03T08:57:44;13.17;;;6.53;;
48635;SDS011;34429;52.332;5.614;2023-03-03T09:00:13;16.87;;;7.27;;
48635;SDS011;34429;52.332;5.614;2023-03-03T09:02:43;14.25;;;6.90;;
48635;SDS011;34429;52.332;5.614;2023-03-03T09:05:14;12.90;;;6.32;;
48635;SDS011;34429;52.332;5.614;2023-03-03T09:07:44;12.32;;;6.45;;
48635;SDS011;34429;52.332;5.614;2023-03-03T09:10:16;20.05;;;7.68;;
48635;SDS011;34429;52.332;5.614;2023-03-03T09:12:47;13.50;;;6.47;;
48635;SDS011;34429;52.332;5.614;2023-03-03T09:15:18;13.35;;;6.45;;
48635;SDS011;34429;52.332;5.614;2023-03-03T09:17:49;18.05;;;6.63;;
48635;SDS011;34429;52.332;5.614;2023-03-03T09:22:55;15.18;;;5.97;;
48635;SDS011;34429;52.332;5.614;2023-03-03T09:25:26;12.25;;;5.80;;
48635;SDS011;34429;52.332;5.614;2023-03-03T09:28:00;11.65;;;6.05;;
48635;SDS011;34429;52.332;5.614;2023-03-03T09:30:33;10.55;;;5.55;;
48635;SDS011;34429;52.332;5.614;2023-03-03T09:33:18;12.65;;;6.47;;
48635;SDS011;34429;52.332;5.614;2023-03-03T09:36:03;13.80;;;6.30;;
48635;SDS011;34429;52.332;5.614;2023-03-03T09:38:43;12.10;;;5.13;;
48635;SDS011;34429;52.332;5.614;2023-03-03T09:44:21;12.13;;;6.15;;
48635;SDS011;34429;52.332;5.614;2023-03-03T09:47:05;10.82;;;5.15;;
48635;SDS011;34429;52.332;5.614;2023-03-03T09:49:48;12.95;;;5.97;;
48635;SDS011;34429;52.332;5.614;2023-03-03T09:52:29;11.63;;;5.38;;
48635;SDS011;34429;52.332;5.614;2023-03-03T09:55:09;11.50;;;5.43;;
48635;SDS011;34429;52.332;5.614;2023-03-03T09:57:56;11.85;;;5.97;;
48635;SDS011;34429;52.332;5.614;2023-03-03T10:00:39;10.38;;;5.18;;
48635;SDS011;34429;52.332;5.614;2023-03-03T10:03:27;10.82;;;5.15;;
48635;SDS011;34429;52.332;5.614;2023-03-03T10:06:11;9.82;;;4.80;;
48635;SDS011;34429;52.332;5.614;2023-03-03T10:09:02;14.13;;;6.25;;
48635;SDS011;34429;52.332;5.614;2023-03-03T10:11:48;14.70;;;6.10;;
48635;SDS011;34429;52.332;5.614;2023-03-03T10:14:34;10.85;;;5.78;;
48635;SDS011;34429;52.332;5.614;2023-03-03T10:17:17;10.88;;;4.53;;
48635;SDS011;34429;52.332;5.614;2023-03-03T10:19:57;12.18;;;5.00;;
48635;SDS011;34429;52.332;5.614;2023-03-03T10:22:35;10.20;;;4.47;;
48635;SDS011;34429;52.332;5.614;2023-03-03T10:25:16;9.93;;;5.03;;
48635;SDS011;34429;52.332;5.614;2023-03-03T10:27:56;8.75;;;4.60;;
48635;SDS011;34429;52.332;5.614;2023-03-03T10:30:45;10.15;;;5.30;;
48635;SDS011;34429;52.332;5.614;2023-03-03T10:33:22;9.20;;;4.65;;
48635;SDS011;34429;52.332;5.614;2023-03-03T10:35:59;9.93;;;4.75;;
48635;SDS011;34429;52.332;5.614;2023-03-03T10:38:38;9.77;;;4.85;;
48635;SDS011;34429;52.332;5.614;2023-03-03T10:41:20;8.50;;;4.13;;
48635;SDS011;34429;52.332;5.614;2023-03-03T10:44:08;12.27;;;4.45;;
48635;SDS011;34429;52.332;5.614;2023-03-03T10:46:53;9.77;;;3.92;;
48635;SDS011;34429;52.332;5.614;2023-03-03T10:49:49;8.20;;;3.83;;
48635;SDS011;34429;52.332;5.614;2023-03-03T10:52:30;8.10;;;4.32;;
48635;SDS011;34429;52.332;5.614;2023-03-03T10:55:08;10.27;;;4.13;;
48635;SDS011;34429;52.332;5.614;2023-03-03T10:57:52;8.60;;;4.22;;
48635;SDS011;34429;52.332;5.614;2023-03-03T11:00:32;9.13;;;4.05;;
48635;SDS011;34429;52.332;5.614;2023-03-03T11:03:15;7.82;;;4.20;;
48635;SDS011;34429;52.332;5.614;2023-03-03T11:06:01;12.32;;;6.70;;
48635;SDS011;34429;52.332;5.614;2023-03-03T11:08:37;10.07;;;5.20;;
48635;SDS011;34429;52.332;5.614;2023-03-03T11:11:12;8.52;;;4.93;;
48635;SDS011;34429;52.332;5.614;2023-03-03T11:13:48;8.32;;;4.93;;
48635;SDS011;34429;52.332;5.614;2023-03-03T11:16:33;8.87;;;4.63;;
48635;SDS011;34429;52.332;5.614;2023-03-03T11:19:11;10.43;;;4.65;;
48635;SDS011;34429;52.332;5.614;2023-03-03T11:21:55;6.88;;;4.35;;
48635;SDS011;34429;52.332;5.614;2023-03-03T11:24:38;8.32;;;4.05;;
48635;SDS011;34429;52.332;5.614;2023-03-03T11:27:20;6.95;;;3.92;;
48635;SDS011;34429;52.332;5.614;2023-03-03T11:30:05;8.73;;;3.25;;
48635;SDS011;34429;52.332;5.614;2023-03-03T11:32:46;7.43;;;2.75;;
48635;SDS011;34429;52.332;5.614;2023-03-03T11:35:22;9.02;;;3.08;;
48635;SDS011;34429;52.332;5.614;2023-03-03T11:37:56;8.25;;;2.90;;
48635;SDS011;34429;52.332;5.614;2023-03-03T11:40:36;5.40;;;2.63;;
48635;SDS011;34429;52.332;5.614;2023-03-03T11:43:16;7.68;;;3.58;;
48635;SDS011;34429;52.332;5.614;2023-03-03T11:45:52;9.68;;;2.65;;
48635;SDS011;34429;52.332;5.614;2023-03-03T11:48:26;6.40;;;3.70;;
48635;SDS011;34429;52.332;5.614;2023-03-03T11:51:04;10.00;;;3.33;;
48635;SDS011;34429;52.332;5.614;2023-03-03T11:53:37;6.30;;;3.33;;
48635;SDS011;34429;52.332;5.614;2023-03-03T11:56:15;7.03;;;3.08;;
48635;SDS011;34429;52.332;5.614;2023-03-03T11:58:49;4.90;;;2.92;;
48635;SDS011;34429;52.332;5.614;2023-03-03T12:01:28;6.75;;;3.30;;
48635;SDS011;34429;52.332;5.614;2023-03-03T12:04:00;10.98;;;3.45;;
48635;SDS011;34429;52.332;5.614;2023-03-03T12:06:32;7.93;;;3.10;;
48635;SDS011;34429;52.332;5.614;2023-03-03T12:09:28;6.25;;;3.03;;
48635;SDS011;34429;52.332;5.614;2023-03-03T12:12:07;9.52;;;2.95;;
48635;SDS011;34429;52.332;5.614;2023-03-03T12:14:57;14.20;;;6.07;;
48635;SDS011;34429;52.332;5.614;2023-03-03T12:17:38;13.07;;;6.43;;
48635;SDS011;34429;52.332;5.614;2023-03-03T12:20:20;25.45;;;10.85;;
48635;SDS011;34429;52.332;5.614;2023-03-03T12:22:59;17.13;;;8.02;;
48635;SDS011;34429;52.332;5.614;2023-03-03T12:25:38;5.55;;;2.42;;
48635;SDS011;34429;52.332;5.614;2023-03-03T12:28:12;10.75;;;5.82;;
48635;SDS011;34429;52.332;5.614;2023-03-03T12:30:54;9.93;;;3.70;;
48635;SDS011;34429;52.332;5.614;2023-03-03T12:33:41;44.30;;;20.57;;
48635;SDS011;34429;52.332;5.614;2023-03-03T12:36:24;9.90;;;4.15;;
48635;SDS011;34429;52.332;5.614;2023-03-03T12:39:02;5.10;;;2.85;;
48635;SDS011;34429;52.332;5.614;2023-03-03T12:41:39;8.55;;;3.92;;
48635;SDS011;34429;52.332;5.614;2023-03-03T12:44:20;4.22;;;2.55;;
48635;SDS011;34429;52.332;5.614;2023-03-03T12:46:55;6.65;;;3.35;;
48635;SDS011;34429;52.332;5.614;2023-03-03T12:49:30;4.55;;;2.70;;
48635;SDS011;34429;52.332;5.614;2023-03-03T12:52:08;7.38;;;2.90;;
48635;SDS011;34429;52.332;5.614;2023-03-03T12:54:53;6.60;;;2.90;;
48635;SDS011;34429;52.332;5.614;2023-03-03T12:57:31;5.25;;;2.55;;
48635;SDS011;34429;52.332;5.614;2023-03-03T13:00:16;5.22;;;2.88;;
48635;SDS011;34429;52.332;5.614;2023-03-03T13:02:53;7.57;;;2.80;;
48635;SDS011;34429;52.332;5.614;2023-03-03T13:05:32;3.80;;;2.30;;
48635;SDS011;34429;52.332;5.614;2023-03-03T13:08:14;7.53;;;2.80;;
48635;SDS011;34429;52.332;5.614;2023-03-03T13:10:54;6.88;;;2.55;;
48635;SDS011;34429;52.332;5.614;2023-03-03T13:13:26;3.40;;;2.50;;
48635;SDS011;34429;52.332;5.614;2023-03-03T13:16:01;3.35;;;2.35;;
48635;SDS011;34429;52.332;5.614;2023-03-03T13:18:35;6.97;;;2.70;;
48635;SDS011;34429;52.332;5.614;2023-03-03T13:21:19;6.53;;;2.70;;
48635;SDS011;34429;52.332;5.614;2023-03-03T13:23:52;6.95;;;2.30;;
48635;SDS011;34429;52.332;5.614;2023-03-03T13:26:25;4.90;;;2.70;;
48635;SDS011;34429;52.332;5.614;2023-03-03T13:28:57;4.43;;;2.15;;
48635;SDS011;34429;52.332;5.614;2023-03-03T13:31:32;8.13;;;3.08;;
48635;SDS011;34429;52.332;5.614;2023-03-03T13:34:03;9.18;;;2.70;;
48635;SDS011;34429;52.332;5.614;2023-03-03T13:36:38;8.52;;;3.30;;
48635;SDS011;34429;52.332;5.614;2023-03-03T13:39:16;7.28;;;3.17;;
48635;SDS011;34429;52.332;5.614;2023-03-03T13:41:49;10.93;;;4.53;;
48635;SDS011;34429;52.332;5.614;2023-03-03T13:44:22;5.32;;;3.17;;
48635;SDS011;34429;52.332;5.614;2023-03-03T13:46:57;8.18;;;4.00;;
48635;SDS011;34429;52.332;5.614;2023-03-03T13:49:33;2.97;;;2.17;;
48635;SDS011;34429;52.332;5.614;2023-03-03T13:52:14;5.90;;;3.55;;
48635;SDS011;34429;52.332;5.614;2023-03-03T13:54:52;17.52;;;8.07;;
48635;SDS011;34429;52.332;5.614;2023-03-03T13:57:37;9.52;;;5.47;;
48635;SDS011;34429;52.332;5.614;2023-03-03T14:00:18;3.28;;;2.30;;
48635;SDS011;34429;52.332;5.614;2023-03-03T14:02:59;6.28;;;3.72;;
48635;SDS011;34429;52.332;5.614;2023-03-03T14:05:36;3.28;;;2.00;;
48635;SDS011;34429;52.332;5.614;2023-03-03T14:08:12;5.22;;;1.83;;
48635;SDS011;34429;52.332;5.614;2023-03-03T14:10:57;4.20;;;2.58;;
48635;SDS011;34429;52.332;5.614;2023-03-03T14:13:36;7.05;;;5.05;;
48635;SDS011;34429;52.332;5.614;2023-03-03T14:16:13;5.20;;;1.55;;
48635;SDS011;34429;52.332;5.614;2023-03-03T14:18:51;2.47;;;2.13;;
48635;SDS011;34429;52.332;5.614;2023-03-03T14:21:25;11.95;;;2.47;;
48635;SDS011;34429;52.332;5.614;2023-03-03T14:24:01;6.05;;;2.90;;
48635;SDS011;34429;52.332;5.614;2023-03-03T14:26:44;2.97;;;2.10;;
48635;SDS011;34429;52.332;5.614;2023-03-03T14:29:21;5.25;;;1.50;;
48635;SDS011;34429;52.332;5.614;2023-03-03T14:31:57;5.13;;;2.00;;
48635;SDS011;34429;52.332;5.614;2023-03-03T14:34:38;2.38;;;1.13;;
48635;SDS011;34429;52.332;5.614;2023-03-03T14:37:18;1.80;;;1.13;;
48635;SDS011;34429;52.332;5.614;2023-03-03T14:42:47;3.05;;;1.40;;
48635;SDS011;34429;52.332;5.614;2023-03-03T14:45:27;1.77;;;1.30;;
48635;SDS011;34429;52.332;5.614;2023-03-03T14:48:05;5.70;;;2.28;;
48635;SDS011;34429;52.332;5.614;2023-03-03T14:50:38;3.40;;;1.63;;
48635;SDS011;34429;52.332;5.614;2023-03-03T14:53:13;5.20;;;3.50;;
48635;SDS011;34429;52.332;5.614;2023-03-03T14:55:46;4.38;;;3.28;;
48635;SDS011;34429;52.332;5.614;2023-03-03T14:58:30;5.00;;;2.90;;
48635;SDS011;34429;52.332;5.614;2023-03-03T15:01:11;7.72;;;3.60;;
48635;SDS011;34429;52.332;5.614;2023-03-03T15:03:48;3.58;;;2.05;;
48635;SDS011;34429;52.332;5.614;2023-03-03T15:06:29;4.75;;;3.25;;
48635;SDS011;34429;52.332;5.614;2023-03-03T15:11:52;4.65;;;2.63;;
48635;SDS011;34429;52.332;5.614;2023-03-03T15:14:24;5.60;;;2.67;;
48635;SDS011;34429;52.332;5.614;2023-03-03T15:16:57;5.10;;;2.70;;
48635;SDS011;34429;52.332;5.614;2023-03-03T15:19:46;3.45;;;0.98;;
48635;SDS011;34429;52.332;5.614;2023-03-03T15:22:25;5.70;;;1.90;;
48635;SDS011;34429;52.332;5.614;2023-03-03T15:25:05;6.47;;;1.60;;
48635;SDS011;34429;52.332;5.614;2023-03-03T15:27:45;3.05;;;1.80;;
48635;SDS011;34429;52.332;5.614;2023-03-03T15:30:21;2.38;;;1.35;;
48635;SDS011;34429;52.332;5.614;2023-03-03T15:32:57;3.95;;;1.90;;